createdAt,value
2018-05-21T00:00:57.059Z,6.30
2018-05-21T00:03:24.291Z,3.63
2018-05-21T00:05:50.829Z,3.63
2018-05-21T00:08:17.434Z,3.60
2018-05-21T00:10:43.973Z,4.77
2018-05-21T00:13:10.424Z,4.30
2018-05-21T00:15:36.927Z,4.10
2018-05-21T00:18:03.394Z,3.50
2018-05-21T00:20:29.928Z,5.17
2018-05-21T00:22:56.404Z,4.70
2018-05-21T00:25:22.901Z,3.80
2018-05-21T00:27:49.414Z,5.40
2018-05-21T00:30:15.897Z,3.90
2018-05-21T00:32:43.078Z,2.43
2018-05-21T00:35:09.674Z,3.63
2018-05-21T00:37:36.169Z,4.00
2018-05-21T00:40:02.718Z,4.23
2018-05-21T00:42:29.224Z,5.40
2018-05-21T00:44:55.769Z,3.97
2018-05-21T00:47:22.269Z,4.73
2018-05-21T00:49:48.742Z,4.00
2018-05-21T00:52:15.225Z,5.00
2018-05-21T00:54:54.782Z,4.53
2018-05-21T00:57:21.302Z,4.80
2018-05-21T00:59:48.615Z,5.13
2018-05-21T01:02:15.109Z,5.73
2018-05-21T01:04:41.573Z,5.00
2018-05-21T01:07:08.045Z,5.40
2018-05-21T01:09:36.755Z,8.80
2018-05-21T01:12:03.257Z,6.90
2018-05-21T01:14:30.571Z,5.70
2018-05-21T01:16:57.065Z,5.03
2018-05-21T01:19:24.311Z,9.50
2018-05-21T01:21:50.914Z,4.50
2018-05-21T01:24:17.428Z,6.27
2018-05-21T01:26:43.892Z,5.50
2018-05-21T01:29:10.369Z,4.00
2018-05-21T01:31:36.906Z,5.70
2018-05-21T01:34:03.381Z,4.60
2018-05-21T01:36:30.084Z,4.30
2018-05-21T01:38:56.690Z,5.67
2018-05-21T01:41:23.138Z,5.87
2018-05-21T01:43:50.497Z,5.67
2018-05-21T01:46:17.755Z,4.30
2018-05-21T01:48:44.180Z,4.30
2018-05-21T01:51:11.434Z,3.90
2018-05-21T01:53:38.650Z,5.60
2018-05-21T01:56:05.153Z,5.80
2018-05-21T01:58:31.606Z,11.90
2018-05-21T02:00:58.231Z,6.40
2018-05-21T02:03:24.696Z,5.60
2018-05-21T02:05:51.189Z,5.73
2018-05-21T02:08:17.688Z,6.17
2018-05-21T02:10:46.918Z,6.03
2018-05-21T02:13:13.410Z,3.23
2018-05-21T02:15:39.895Z,5.00
2018-05-21T02:18:06.367Z,6.40
2018-05-21T02:20:32.908Z,6.53
2018-05-21T02:22:59.370Z,7.60
2018-05-21T02:25:25.873Z,5.80
2018-05-21T02:27:53.102Z,6.30
2018-05-21T02:30:19.573Z,4.50
2018-05-21T02:32:46.829Z,5.53
2018-05-21T02:35:14.005Z,5.30
2018-05-21T02:37:40.472Z,5.53
2018-05-21T02:40:06.924Z,6.63
2018-05-21T02:42:33.397Z,6.73
2018-05-21T02:44:59.870Z,7.40
2018-05-21T02:47:26.342Z,6.27
2018-05-21T02:49:53.626Z,6.13
2018-05-21T02:52:20.097Z,7.10
2018-05-21T02:54:46.551Z,6.10
2018-05-21T02:57:13.040Z,5.17
2018-05-21T02:59:39.524Z,3.83
2018-05-21T03:02:05.961Z,5.93
2018-05-21T03:04:33.266Z,8.10
2018-05-21T03:06:59.760Z,4.17
2018-05-21T03:09:26.243Z,7.50
2018-05-21T03:11:52.845Z,4.07
2018-05-21T03:14:19.306Z,5.80
2018-05-21T03:16:45.859Z,6.63
2018-05-21T03:19:12.636Z,6.07
2018-05-21T03:21:39.866Z,6.10
2018-05-21T03:24:06.426Z,5.43
2018-05-21T03:26:33.753Z,5.63
2018-05-21T03:29:00.239Z,3.83
2018-05-21T03:31:26.718Z,5.63
2018-05-21T03:33:53.214Z,7.87
2018-05-21T03:36:19.856Z,7.37
2018-05-21T03:38:46.317Z,6.50
2018-05-21T03:41:12.880Z,7.00
2018-05-21T03:43:40.113Z,7.73
2018-05-21T03:46:06.590Z,7.77
2018-05-21T03:48:33.126Z,8.20
2018-05-21T03:50:59.606Z,5.37
2018-05-21T03:53:26.154Z,8.60
2018-05-21T03:55:52.628Z,7.63
2018-05-21T03:58:31.326Z,13.40
2018-05-21T04:01:10.658Z,6.20
2018-05-21T04:03:49.918Z,8.30
2018-05-21T04:06:16.351Z,5.10
2018-05-21T04:08:42.855Z,7.80
2018-05-21T04:11:10.109Z,9.10
2018-05-21T04:13:36.626Z,8.20
2018-05-21T04:16:03.181Z,6.20
2018-05-21T04:18:29.663Z,9.07
2018-05-21T04:20:56.118Z,8.83
2018-05-21T04:23:22.532Z,6.53
2018-05-21T04:25:49.013Z,9.77
2018-05-21T04:28:15.450Z,7.63
2018-05-21T04:30:42.699Z,8.03
2018-05-21T04:33:09.146Z,7.80
2018-05-21T04:35:36.464Z,9.10
2018-05-21T04:38:02.918Z,10.50
2018-05-21T04:40:29.424Z,9.07
2018-05-21T04:42:55.869Z,8.67
2018-05-21T04:45:22.380Z,7.87
2018-05-21T04:47:49.781Z,9.03
2018-05-21T04:50:16.974Z,8.57
2018-05-21T04:52:43.438Z,9.80
2018-05-21T04:55:09.872Z,9.90
2018-05-21T04:57:36.347Z,9.23
2018-05-21T05:00:03.538Z,8.13
2018-05-21T05:02:30.062Z,9.10
2018-05-21T05:04:56.537Z,9.30
2018-05-21T05:07:23.058Z,10.20
2018-05-21T05:09:49.522Z,8.60
2018-05-21T05:12:16.742Z,9.03
2018-05-21T05:14:43.268Z,9.43
2018-05-21T05:17:09.725Z,10.10
2018-05-21T05:19:36.278Z,9.20
2018-05-21T05:22:03.597Z,10.40
2018-05-21T05:24:30.026Z,11.03
2018-05-21T05:26:56.497Z,9.73
2018-05-21T05:29:23.702Z,10.50
2018-05-21T05:31:50.119Z,7.93
2018-05-21T05:34:16.580Z,9.37
2018-05-21T05:36:43.043Z,10.57
2018-05-21T05:39:10.400Z,10.67
2018-05-21T05:41:37.561Z,9.70
2018-05-21T05:44:04.825Z,9.27
2018-05-21T05:46:31.267Z,12.43
2018-05-21T05:48:57.830Z,9.93
2018-05-21T05:51:24.321Z,10.03
2018-05-21T05:53:50.803Z,10.17
2018-05-21T05:56:17.286Z,9.90
2018-05-21T05:58:44.478Z,11.03
2018-05-21T06:01:11.058Z,9.87
2018-05-21T06:03:38.429Z,10.17
2018-05-21T06:06:04.800Z,9.83
2018-05-21T06:08:31.322Z,9.63
2018-05-21T06:10:57.798Z,9.03
2018-05-21T06:13:24.337Z,11.20
2018-05-21T06:15:50.835Z,9.70
2018-05-21T06:18:17.301Z,9.57
2018-05-21T06:20:43.779Z,9.97
2018-05-21T06:23:10.235Z,9.23
2018-05-21T06:25:36.666Z,8.80
2018-05-21T06:28:03.265Z,9.17
2018-05-21T06:30:29.698Z,9.33
2018-05-21T06:32:56.890Z,9.53
2018-05-21T06:35:23.358Z,9.67
2018-05-21T06:37:49.848Z,6.20
2018-05-21T06:40:16.378Z,8.37
2018-05-21T06:42:42.830Z,8.50
2018-05-21T06:45:09.370Z,8.40
2018-05-21T06:47:35.857Z,9.47
2018-05-21T06:50:03.062Z,9.43
2018-05-21T06:52:29.582Z,9.50
2018-05-21T06:54:56.013Z,8.30
2018-05-21T06:57:22.557Z,8.97
2018-05-21T06:59:49.068Z,9.17
2018-05-21T07:02:15.614Z,8.73
2018-05-21T07:04:42.042Z,8.70
2018-05-21T07:07:08.502Z,8.53
2018-05-21T07:09:34.989Z,8.40
2018-05-21T07:12:01.508Z,8.70
2018-05-21T07:14:28.867Z,8.40
2018-05-21T07:16:55.335Z,7.00
2018-05-21T07:19:21.931Z,8.33
2018-05-21T07:21:49.133Z,7.20
2018-05-21T07:24:15.682Z,9.07
2018-05-21T07:26:42.146Z,7.90
2018-05-21T07:29:09.470Z,8.03
2018-05-21T07:31:35.954Z,7.10
2018-05-21T07:34:03.194Z,6.70
2018-05-21T07:36:30.380Z,7.13
2018-05-21T07:38:56.903Z,7.77
2018-05-21T07:41:23.352Z,5.97
2018-05-21T07:43:49.841Z,7.93
2018-05-21T07:46:17.070Z,7.90
2018-05-21T07:48:43.543Z,7.33
2018-05-21T07:51:10.970Z,7.63
2018-05-21T07:53:38.242Z,8.70
2018-05-21T07:56:05.458Z,8.67
2018-05-21T07:58:31.933Z,7.93
2018-05-21T08:00:59.255Z,7.97
2018-05-21T08:03:25.752Z,7.60
2018-05-21T08:05:53.024Z,5.90
2018-05-21T08:08:19.594Z,7.70
2018-05-21T08:10:46.825Z,7.30
2018-05-21T08:13:13.334Z,7.77
2018-05-21T08:15:40.169Z,7.53
2018-05-21T08:18:06.870Z,6.37
2018-05-21T08:20:34.318Z,5.43
2018-05-21T08:23:01.704Z,6.23
2018-05-21T08:25:28.182Z,7.87
2018-05-21T08:27:54.729Z,5.43
2018-05-21T08:30:21.183Z,7.77
2018-05-21T08:32:48.440Z,8.43
2018-05-21T08:35:15.590Z,7.90
2018-05-21T08:37:42.894Z,6.60
2018-05-21T08:40:09.402Z,8.13
2018-05-21T08:42:35.905Z,7.23
2018-05-21T08:45:03.455Z,7.37
2018-05-21T08:47:30.025Z,7.20
2018-05-21T08:49:56.511Z,7.50
2018-05-21T08:52:23.028Z,7.13
2018-05-21T08:54:49.503Z,7.53
2018-05-21T08:57:16.770Z,7.30
2018-05-21T08:59:44.038Z,7.00
2018-05-21T09:02:10.560Z,7.30
2018-05-21T09:04:37.049Z,7.30
2018-05-21T09:07:03.465Z,5.63
2018-05-21T09:09:29.997Z,7.10
2018-05-21T09:11:56.811Z,5.83
2018-05-21T09:14:24.194Z,7.03
2018-05-21T09:16:50.671Z,5.80
2018-05-21T09:19:17.903Z,6.93
2018-05-21T09:21:44.471Z,6.90
2018-05-21T09:24:11.730Z,6.10
2018-05-21T09:26:38.312Z,6.87
2018-05-21T09:29:04.794Z,6.60
2018-05-21T09:31:31.247Z,9.07
2018-05-21T09:33:57.743Z,6.43
2018-05-21T09:36:24.257Z,7.70
2018-05-21T09:38:50.803Z,4.47
2018-05-21T09:41:18.094Z,6.67
2018-05-21T09:43:44.621Z,7.20
2018-05-21T09:46:11.836Z,6.00
2018-05-21T09:48:38.449Z,6.87
2018-05-21T09:51:04.882Z,6.20
2018-05-21T09:53:31.398Z,6.07
2018-05-21T09:55:57.919Z,5.40
2018-05-21T09:58:24.490Z,7.60
2018-05-21T10:00:54.953Z,6.70
2018-05-21T10:03:21.583Z,6.27
2018-05-21T10:05:48.049Z,7.40
2018-05-21T10:08:15.265Z,6.27
2018-05-21T10:10:41.771Z,6.40
2018-05-21T10:13:08.239Z,5.33
2018-05-21T10:15:34.835Z,4.47
2018-05-21T10:18:01.554Z,5.47
2018-05-21T10:20:28.103Z,6.33
2018-05-21T10:22:54.612Z,6.00
2018-05-21T10:25:21.928Z,4.97
2018-05-21T10:27:48.465Z,6.40
2018-05-21T10:30:14.964Z,6.23
2018-05-21T10:32:41.446Z,6.10
2018-05-21T10:35:08.065Z,5.60
2018-05-21T10:37:34.496Z,5.23
2018-05-21T10:40:00.984Z,5.27
2018-05-21T10:42:27.519Z,5.13
2018-05-21T10:44:54.341Z,5.13
2018-05-21T10:47:21.583Z,5.87
2018-05-21T10:49:48.077Z,5.73
2018-05-21T10:52:14.542Z,5.10
2018-05-21T10:54:41.308Z,5.50
2018-05-21T10:57:08.635Z,5.07
2018-05-21T10:59:35.234Z,6.30
2018-05-21T11:02:01.809Z,5.43
2018-05-21T11:04:28.359Z,5.00
2018-05-21T11:06:56.725Z,4.80
2018-05-21T11:09:23.182Z,5.63
2018-05-21T11:11:50.997Z,4.13
2018-05-21T11:14:17.463Z,4.30
2018-05-21T11:16:43.987Z,6.70
2018-05-21T11:19:10.477Z,4.80
2018-05-21T11:21:37.186Z,5.40
2018-05-21T11:24:04.633Z,5.13
2018-05-21T11:26:31.148Z,4.70
2018-05-21T11:28:57.730Z,4.73
2018-05-21T11:31:24.226Z,4.67
2018-05-21T11:33:50.777Z,4.30
2018-05-21T11:36:17.982Z,5.17
2018-05-21T11:38:44.443Z,4.77
2018-05-21T11:41:11.225Z,4.70
2018-05-21T11:43:37.772Z,4.90
2018-05-21T11:46:04.616Z,4.43
2018-05-21T11:48:31.133Z,4.97
2018-05-21T11:50:57.698Z,5.10
2018-05-21T11:53:24.160Z,4.10
2018-05-21T11:55:50.623Z,4.20
2018-05-21T11:58:17.141Z,5.30
2018-05-21T12:00:43.605Z,4.50
2018-05-21T12:03:10.879Z,5.03
2018-05-21T12:05:37.343Z,5.10
2018-05-21T12:08:04.580Z,4.03
2018-05-21T12:10:31.031Z,4.33
2018-05-21T12:12:57.554Z,4.33
2018-05-21T12:15:24.053Z,4.43
2018-05-21T12:17:51.271Z,4.10
2018-05-21T12:20:17.926Z,3.83
2018-05-21T12:22:45.286Z,5.20
2018-05-21T12:25:12.497Z,4.80
2018-05-21T12:27:39.213Z,5.40
2018-05-21T12:30:05.855Z,4.93
2018-05-21T12:32:32.560Z,4.20
2018-05-21T12:34:59.046Z,4.50
2018-05-21T12:37:25.584Z,4.70
2018-05-21T12:39:52.040Z,4.90
2018-05-21T12:42:19.296Z,4.90
2018-05-21T12:47:42.361Z,4.63
2018-05-21T12:50:09.847Z,4.00
2018-05-21T12:52:36.777Z,4.00
2018-05-21T12:55:10.243Z,4.27
2018-05-21T12:57:36.771Z,5.07
2018-05-21T13:00:03.289Z,4.57
2018-05-21T13:02:29.922Z,4.20
2018-05-21T13:04:57.114Z,5.03
2018-05-21T13:07:23.579Z,4.70
2018-05-21T13:09:50.120Z,4.47
2018-05-21T13:12:16.556Z,4.63
2018-05-21T13:14:43.770Z,4.40
2018-05-21T13:17:10.284Z,4.50
2018-05-21T13:19:36.750Z,4.40
2018-05-21T13:22:03.227Z,4.23
2018-05-21T13:24:30.525Z,4.37
2018-05-21T13:26:56.944Z,4.53
2018-05-21T13:29:23.565Z,4.60
2018-05-21T13:31:50.020Z,5.17
2018-05-21T13:34:16.579Z,4.87
2018-05-21T13:36:43.026Z,4.50
2018-05-21T13:39:09.484Z,4.47
2018-05-21T13:41:35.969Z,5.40
2018-05-21T13:44:02.461Z,4.70
2018-05-21T13:46:29.133Z,4.50
2018-05-21T13:48:56.317Z,4.40
2018-05-21T13:51:22.818Z,4.23
2018-05-21T13:53:49.443Z,5.00
2018-05-21T13:56:15.945Z,5.13
2018-05-21T13:58:42.405Z,4.97
2018-05-21T14:01:08.834Z,4.90
2018-05-21T14:03:35.277Z,6.40
2018-05-21T14:06:01.753Z,5.47
2018-05-21T14:08:28.989Z,5.60
2018-05-21T14:10:55.494Z,5.73
2018-05-21T14:13:22.077Z,5.60
2018-05-21T14:15:49.279Z,5.40
2018-05-21T14:18:15.779Z,5.47
2018-05-21T14:20:42.969Z,5.30
2018-05-21T14:23:09.494Z,5.13
2018-05-21T14:25:35.914Z,5.83
2018-05-21T14:28:02.387Z,5.50
2018-05-21T14:30:28.822Z,6.23
2018-05-21T14:32:55.362Z,5.87
2018-05-21T14:35:21.835Z,5.50
2018-05-21T14:37:48.342Z,5.20
2018-05-21T14:40:15.565Z,5.57
2018-05-21T14:42:42.000Z,5.23
2018-05-21T14:45:08.726Z,5.23
2018-05-21T14:47:35.173Z,5.00
2018-05-21T14:50:02.448Z,5.33
2018-05-21T14:52:29.780Z,5.20
2018-05-21T14:54:56.395Z,5.97
2018-05-21T14:57:22.873Z,5.30
2018-05-21T14:59:50.136Z,5.70
2018-05-21T15:02:16.585Z,6.27
2018-05-21T15:04:43.037Z,5.10
2018-05-21T15:07:09.670Z,5.73
2018-05-21T15:09:36.100Z,5.43
2018-05-21T15:12:02.608Z,5.27
2018-05-21T15:14:29.090Z,5.40
2018-05-21T15:16:55.668Z,5.60
2018-05-21T15:19:22.144Z,5.33
2018-05-21T15:21:48.592Z,5.63
2018-05-21T15:24:15.072Z,5.17
2018-05-21T15:26:41.538Z,6.20
2018-05-21T15:29:08.071Z,5.13
2018-05-21T15:31:34.557Z,6.13
2018-05-21T15:34:01.207Z,5.63
2018-05-21T15:36:28.401Z,5.53
2018-05-21T15:38:54.884Z,5.17
2018-05-21T15:41:22.176Z,5.30
2018-05-21T15:43:48.708Z,5.00
2018-05-21T15:46:15.112Z,5.27
2018-05-21T15:48:42.455Z,5.70
2018-05-21T15:51:08.928Z,5.60
2018-05-21T15:53:35.349Z,6.40
2018-05-21T15:56:01.815Z,4.90
2018-05-21T15:58:28.250Z,4.80
2018-05-21T16:00:54.684Z,4.00
2018-05-21T16:03:21.144Z,4.67
2018-05-21T16:05:47.612Z,4.37
2018-05-21T16:08:14.057Z,4.60
2018-05-21T16:10:40.584Z,4.60
2018-05-21T16:13:07.037Z,5.17
2018-05-21T16:15:33.506Z,4.97
2018-05-21T16:18:00.016Z,4.40
2018-05-21T16:20:26.512Z,5.13
2018-05-21T16:22:53.100Z,5.27
2018-05-21T16:25:19.613Z,5.47
2018-05-21T16:27:46.083Z,4.03
2018-05-21T16:30:12.602Z,4.70
2018-05-21T16:32:39.037Z,5.07
2018-05-21T16:35:05.556Z,5.13
2018-05-21T16:37:32.076Z,5.10
2018-05-21T16:39:58.615Z,4.07
2018-05-21T16:42:25.104Z,4.93
2018-05-21T16:44:52.290Z,5.63
2018-05-21T16:47:18.890Z,5.00
2018-05-21T16:49:46.123Z,5.97
2018-05-21T16:52:12.561Z,5.97
2018-05-21T16:54:39.784Z,4.37
2018-05-21T16:57:06.232Z,5.10
2018-05-21T16:59:32.680Z,5.07
2018-05-21T17:02:00.028Z,5.07
2018-05-21T17:04:26.466Z,5.40
2018-05-21T17:06:53.757Z,4.93
2018-05-21T17:09:20.953Z,5.83
2018-05-21T17:11:47.473Z,4.77
2018-05-21T17:14:13.964Z,5.10
2018-05-21T17:16:40.554Z,5.50
2018-05-21T17:19:07.000Z,5.23
2018-05-21T17:21:33.478Z,5.70
2018-05-21T17:24:00.029Z,5.47
2018-05-21T17:26:26.543Z,5.67
2018-05-21T17:28:52.979Z,5.80
2018-05-21T17:31:19.382Z,6.20
2018-05-21T17:33:46.606Z,5.13
2018-05-21T17:36:13.069Z,6.40
2018-05-21T17:38:40.296Z,5.97
2018-05-21T17:41:06.801Z,6.13
2018-05-21T17:43:33.271Z,6.87
2018-05-21T17:45:59.757Z,6.30
2018-05-21T17:48:26.264Z,6.53
2018-05-21T17:50:52.844Z,6.27
2018-05-21T17:53:19.304Z,5.77
2018-05-21T17:55:45.736Z,6.10
2018-05-21T17:58:12.199Z,5.90
2018-05-21T18:00:38.660Z,5.90
2018-05-21T18:03:05.175Z,5.90
2018-05-21T18:05:31.745Z,6.53
2018-05-21T18:07:58.341Z,7.27
2018-05-21T18:10:24.844Z,6.23
2018-05-21T18:12:51.325Z,6.70
2018-05-21T18:15:17.806Z,6.03
2018-05-21T18:17:44.374Z,6.20
2018-05-21T18:20:10.865Z,6.70
2018-05-21T18:22:37.360Z,5.93
2018-05-21T18:25:03.821Z,6.30
2018-05-21T18:27:30.418Z,7.07
2018-05-21T18:29:56.890Z,7.70
2018-05-21T18:32:23.428Z,6.43
2018-05-21T18:34:49.936Z,6.60
2018-05-21T18:37:16.547Z,7.50
2018-05-21T18:39:43.040Z,7.73
2018-05-21T18:42:09.479Z,6.80
2018-05-21T18:44:36.073Z,8.13
2018-05-21T18:47:02.608Z,8.63
2018-05-21T18:49:29.146Z,9.03
2018-05-21T18:51:55.615Z,7.70
2018-05-21T18:54:22.303Z,10.83
2018-05-21T18:56:49.659Z,8.70
2018-05-21T18:59:16.116Z,9.67
2018-05-21T19:01:42.622Z,8.27
2018-05-21T19:04:09.146Z,8.83
2018-05-21T19:06:36.118Z,9.10
2018-05-21T19:09:02.613Z,9.70
2018-05-21T19:11:29.877Z,8.73
2018-05-21T19:13:57.100Z,8.83
2018-05-21T19:16:23.604Z,9.23
2018-05-21T19:18:50.235Z,9.67
2018-05-21T19:21:16.835Z,9.90
2018-05-21T19:23:43.517Z,8.57
2018-05-21T19:26:09.991Z,8.47
2018-05-21T19:28:37.266Z,9.07
2018-05-21T19:31:03.827Z,10.60
2018-05-21T19:33:30.369Z,9.70
2018-05-21T19:35:56.984Z,9.13
2018-05-21T19:38:23.483Z,11.00
2018-05-21T19:40:50.853Z,9.47
2018-05-21T19:43:17.458Z,10.73
2018-05-21T19:45:44.744Z,10.80
2018-05-21T19:48:11.357Z,9.83
2018-05-21T19:50:38.741Z,9.17
2018-05-21T19:53:05.208Z,7.90
2018-05-21T19:55:31.751Z,11.30
2018-05-21T19:57:58.171Z,13.20
2018-05-21T20:00:24.709Z,10.10
2018-05-21T20:02:51.199Z,9.83
2018-05-21T20:05:18.517Z,8.90
2018-05-21T20:07:45.884Z,6.87
2018-05-21T20:10:12.377Z,7.33
2018-05-21T20:12:39.631Z,5.63
2018-05-21T20:15:06.119Z,5.87
2018-05-21T20:17:32.629Z,5.57
2018-05-21T20:19:59.109Z,5.90
2018-05-21T20:22:25.557Z,5.30
2018-05-21T20:24:52.043Z,5.97
2018-05-21T20:27:19.235Z,6.30
2018-05-21T20:29:45.810Z,6.37
2018-05-21T20:32:12.241Z,8.37
2018-05-21T20:34:38.738Z,6.00
2018-05-21T20:37:05.263Z,5.70
2018-05-21T20:39:31.748Z,5.80
2018-05-21T20:41:58.236Z,8.23
2018-05-21T20:44:24.732Z,7.80
2018-05-21T20:46:52.202Z,7.20
2018-05-21T20:49:18.790Z,8.27
2018-05-21T20:51:45.241Z,7.40
2018-05-21T20:54:11.884Z,7.50
2018-05-21T20:56:39.257Z,7.27
2018-05-21T20:59:06.469Z,7.80
2018-05-21T21:01:32.985Z,8.10
2018-05-21T21:04:00.151Z,8.70
2018-05-21T21:06:26.573Z,7.80
2018-05-21T21:08:53.611Z,8.03
2018-05-21T21:11:21.862Z,8.67
2018-05-21T21:13:48.608Z,6.97
2018-05-21T21:16:15.188Z,7.67
2018-05-21T21:18:41.636Z,7.07
2018-05-21T21:21:09.554Z,7.47
2018-05-21T21:23:36.038Z,7.70
2018-05-21T21:26:03.625Z,8.00
2018-05-21T21:28:30.404Z,7.47
2018-05-21T21:30:56.821Z,8.53
2018-05-21T21:33:23.335Z,8.40
2018-05-21T21:35:49.877Z,7.87
2018-05-21T21:38:16.309Z,8.53
2018-05-21T21:40:42.760Z,8.93
2018-05-21T21:43:09.203Z,8.97
2018-05-21T21:45:35.644Z,8.80
2018-05-21T21:48:02.100Z,9.13
2018-05-21T21:50:29.426Z,6.07
2018-05-21T21:52:55.874Z,7.03
2018-05-21T21:55:22.426Z,6.97
2018-05-21T21:57:49.637Z,6.47
2018-05-21T22:00:16.090Z,6.97
2018-05-21T22:02:42.621Z,8.10
2018-05-21T22:05:09.077Z,7.20
2018-05-21T22:07:36.325Z,7.37
2018-05-21T22:10:03.492Z,7.30
2018-05-21T22:12:30.705Z,6.53
2018-05-21T22:14:58.256Z,7.00
2018-05-21T22:17:24.869Z,7.77
2018-05-21T22:19:51.298Z,8.73
2018-05-21T22:22:17.805Z,7.10
2018-05-21T22:24:45.011Z,7.30
2018-05-21T22:27:11.504Z,6.43
2018-05-21T22:29:38.692Z,7.20
2018-05-21T22:32:05.254Z,8.40
2018-05-21T22:34:32.565Z,8.40
2018-05-21T22:36:59.092Z,7.70
2018-05-21T22:39:25.516Z,10.03
2018-05-21T22:41:51.977Z,8.43
2018-05-21T22:44:18.416Z,7.90
2018-05-21T22:46:45.400Z,7.80
2018-05-21T22:49:12.655Z,8.50
2018-05-21T22:51:39.792Z,8.77
2018-05-21T22:54:07.074Z,8.10
2018-05-21T22:56:33.622Z,8.80
2018-05-21T22:59:00.171Z,9.13
2018-05-21T23:01:26.637Z,10.60
2018-05-21T23:03:53.821Z,12.43
2018-05-21T23:06:20.236Z,9.13
2018-05-21T23:08:47.460Z,10.43
2018-05-21T23:11:13.943Z,11.17
2018-05-21T23:13:40.508Z,10.27
2018-05-21T23:16:06.933Z,8.33
2018-05-21T23:18:33.455Z,7.60
2018-05-21T23:20:59.900Z,8.70
2018-05-21T23:23:26.944Z,11.47
2018-05-21T23:25:53.521Z,11.10
2018-05-21T23:28:20.049Z,11.70
2018-05-21T23:30:46.484Z,9.43
2018-05-21T23:33:13.113Z,11.27
2018-05-21T23:35:39.577Z,10.60
2018-05-21T23:38:06.892Z,10.20
2018-05-21T23:40:33.445Z,9.97
2018-05-21T23:43:00.029Z,11.13
2018-05-21T23:45:26.938Z,8.73
2018-05-21T23:47:54.327Z,8.40
2018-05-21T23:50:20.788Z,9.47
2018-05-21T23:52:47.320Z,9.43
2018-05-21T23:55:13.781Z,8.20
2018-05-21T23:57:40.948Z,8.07
